Time;durP1;ratioP1;P1;durP2;ratioP2;P2;SDS_P1;SDS_P2;PMS_P1;PMS_P2;Temp;Humidity;BMP_temperature;BMP_pressure;BME280_temperature;BME280_humidity;BME280_pressure;Samples;Min_cycle;Max_cycle;Signal;HPM_P1;HPM_P2
2023/06/27 00:01:47;;;;;;;1999.90;999.90;;;17.80;99.90;;;;;;6730013;88;20210;-79
2023/06/27 00:11:47;;;;;;;1999.90;999.90;;;17.80;99.90;;;;;;6737121;88;20204;-78
2023/06/27 00:21:48;;;;;;;1999.90;999.90;;;17.60;99.90;;;;;;6730279;88;20269;-79
2023/06/27 00:31:48;;;;;;;1999.90;999.90;;;17.50;99.90;;;;;;6733049;88;20193;-78
2023/06/27 00:41:49;;;;;;;1999.90;999.90;;;17.60;99.90;;;;;;6731015;88;20228;-79
2023/06/27 00:51:51;;;;;;;1999.90;999.90;;;17.50;99.90;;;;;;6741316;88;20182;-78
2023/06/27 01:01:52;;;;;;;1999.90;999.90;;;17.40;99.90;;;;;;6730957;88;20329;-79
2023/06/27 01:12:01;;;;;;;1999.90;999.90;;;17.30;99.90;;;;;;6733867;88;20201;-79
2023/06/27 01:22:09;;;;;;;1999.90;999.90;;;17.20;99.90;;;;;;6733983;88;20216;-79
2023/06/27 01:32:52;;;;;;;1999.90;999.90;;;17.20;99.90;;;;;;6734183;88;20236;-79
2023/06/27 01:43:01;;;;;;;1999.90;999.90;;;17.00;99.90;;;;;;6722222;88;20197;-79
2023/06/27 01:53:02;;;;;;;1999.90;999.90;;;17.10;99.90;;;;;;6730626;88;20707;-80
2023/06/27 02:03:03;;;;;;;1999.90;999.90;;;17.00;99.90;;;;;;6728293;88;20193;-79
2023/06/27 02:13:06;;;;;;;1999.90;999.90;;;16.90;99.90;;;;;;6729427;88;20182;-78
2023/06/27 02:23:06;;;;;;;1999.90;999.90;;;16.90;99.90;;;;;;6728775;88;20525;-79
2023/06/27 02:33:07;;;;;;;1999.90;999.90;;;16.90;99.90;;;;;;6731502;88;20190;-79
2023/06/27 02:43:07;;;;;;;1999.90;999.90;;;16.90;99.90;;;;;;6732629;88;20215;-79
2023/06/27 02:53:08;;;;;;;1999.90;999.90;;;16.70;99.90;;;;;;6731052;88;20251;-79
2023/06/27 03:03:08;;;;;;;1999.90;999.90;;;16.70;99.90;;;;;;6728405;88;20263;-79
2023/06/27 03:13:09;;;;;;;1999.90;999.90;;;16.70;99.90;;;;;;6725210;88;20205;-78
2023/06/27 03:23:09;;;;;;;1999.90;999.90;;;16.60;99.90;;;;;;6724969;88;20205;-80
2023/06/27 03:33:10;;;;;;;1999.90;999.90;;;16.70;99.90;;;;;;6734320;88;20192;-80
2023/06/27 03:43:12;;;;;;;1999.90;999.90;;;16.60;99.90;;;;;;6731514;88;20232;-78
2023/06/27 03:53:13;;;;;;;1999.90;999.90;;;16.50;99.90;;;;;;6729221;88;20189;-80
2023/06/27 04:03:13;;;;;;;1999.90;999.90;;;16.60;99.90;;;;;;6731648;88;20200;-79
2023/06/27 04:13:14;;;;;;;1999.90;999.90;;;16.70;99.90;;;;;;6732193;88;20280;-77
2023/06/27 04:23:16;;;;;;;1999.90;999.90;;;16.70;99.90;;;;;;6728737;88;20244;-77
2023/06/27 04:33:19;;;;;;;1999.90;999.90;;;16.80;99.90;;;;;;6741005;88;20209;-77
2023/06/27 04:43:19;;;;;;;1999.90;999.90;;;16.90;99.90;;;;;;6739935;88;20218;-77
2023/06/27 05:03:23;;;;;;;1999.90;999.90;;;16.80;99.90;;;;;;6754219;88;20288;-80
2023/06/27 05:13:24;;;;;;;1999.90;999.90;;;16.90;99.90;;;;;;6747556;88;20378;-80
2023/06/27 05:23:24;;;;;;;1999.90;999.90;;;16.90;99.90;;;;;;6750410;88;20620;-80
2023/06/27 05:33:25;;;;;;;1999.90;999.90;;;17.10;99.90;;;;;;6749951;88;20205;-80
2023/06/27 05:43:25;;;;;;;1999.90;999.90;;;17.20;99.90;;;;;;6749987;88;20243;-80
2023/06/27 05:53:26;;;;;;;1999.90;999.90;;;17.40;99.90;;;;;;6739316;88;20222;-80
2023/06/27 06:03:26;;;;;;;1999.90;999.90;;;17.60;99.90;;;;;;6741134;88;20197;-81
2023/06/27 06:13:27;;;;;;;1999.90;999.90;;;18.10;99.90;;;;;;6746394;87;20185;-79
2023/06/27 06:23:27;;;;;;;1999.90;999.90;;;19.20;99.90;;;;;;6735781;88;20897;-80
2023/06/27 06:33:28;;;;;;;1999.90;999.90;;;19.90;99.90;;;;;;6741327;88;20335;-79
2023/06/27 06:43:28;;;;;;;1999.90;999.90;;;20.50;99.90;;;;;;6755641;88;20200;-80
2023/06/27 06:53:29;;;;;;;1999.90;999.90;;;21.20;99.90;;;;;;6746872;88;20547;-80
2023/06/27 07:03:31;;;;;;;1999.90;999.90;;;21.80;99.90;;;;;;6742762;88;20213;-79
2023/06/27 07:13:31;;;;;;;1999.90;999.90;;;22.30;99.10;;;;;;6744270;88;20180;-80
2023/06/27 07:23:32;;;;;;;1999.90;999.90;;;23.00;98.40;;;;;;6746185;88;20188;-80
2023/06/27 07:33:32;;;;;;;1999.90;999.90;;;23.30;97.80;;;;;;6741408;88;20325;-79
2023/06/27 07:43:33;;;;;;;1999.90;999.90;;;24.10;96.10;;;;;;6746958;88;20632;-79
2023/06/27 07:53:33;;;;;;;1999.90;999.90;;;24.50;95.50;;;;;;6750805;88;20515;-79
2023/06/27 08:03:34;;;;;;;1999.90;999.90;;;25.00;94.40;;;;;;6748514;88;20378;-79
2023/06/27 08:13:41;;;;;;;1999.90;999.90;;;25.20;92.20;;;;;;6745968;88;20726;-80
2023/06/27 08:23:42;;;;;;;1999.90;999.90;;;25.20;92.20;;;;;;6750257;88;20199;-79
2023/06/27 08:33:42;;;;;;;1999.90;999.90;;;25.60;91.00;;;;;;6753930;88;20169;-79
2023/06/27 08:43:43;;;;;;;1999.90;999.90;;;26.10;89.80;;;;;;6745136;88;20780;-79
2023/06/27 08:53:47;;;;;;;1999.90;999.90;;;25.40;89.90;;;;;;6736957;88;20643;-79
2023/06/27 09:03:48;;;;;;;1999.90;999.90;;;24.50;88.00;;;;;;6723191;88;20193;-79
2023/06/27 09:13:48;;;;;;;1999.90;999.90;;;25.60;84.90;;;;;;6722814;88;20761;-78
2023/06/27 09:23:50;;;;;;;1999.90;999.90;;;26.00;85.50;;;;;;6748579;88;20799;-80
2023/06/27 09:34:02;;;;;;;1999.90;999.90;;;25.60;84.40;;;;;;6753232;88;20679;-80
2023/06/27 09:44:03;;;;;;;1999.90;999.90;;;26.10;82.20;;;;;;6737136;88;20185;-78
2023/06/27 09:54:04;;;;;;;1999.90;999.90;;;25.90;82.30;;;;;;6746233;88;20235;-80
2023/06/27 10:04:05;;;;;;;1999.90;999.90;;;25.60;83.10;;;;;;6739071;88;20333;-80
2023/06/27 10:14:07;;;;;;;1999.90;999.90;;;25.60;83.00;;;;;;6727870;88;20217;-80
2023/06/27 10:24:09;;;;;;;1999.90;999.90;;;25.70;83.00;;;;;;6740531;88;20181;-78
2023/06/27 10:34:17;;;;;;;1999.90;999.90;;;25.60;80.90;;;;;;6732062;88;20212;-79
2023/06/27 10:44:18;;;;;;;1999.90;999.90;;;24.90;80.10;;;;;;6741543;88;20200;-80
2023/06/27 11:04:26;;;;;;;1999.90;999.90;;;26.40;79.20;;;;;;6734265;88;20216;-79
2023/06/27 11:14:37;;;;;;;1999.90;999.90;;;25.60;79.70;;;;;;6744553;88;20216;-79
2023/06/27 11:24:40;;;;;;;1999.90;999.90;;;26.30;79.80;;;;;;6740331;87;20248;-81
2023/06/27 11:34:42;;;;;;;1999.90;999.90;;;27.00;77.40;;;;;;6737759;88;20192;-80
2023/06/27 11:44:42;;;;;;;1999.90;999.90;;;27.40;75.30;;;;;;6739581;88;20189;-79
2023/06/27 11:54:49;;;;;;;1999.90;999.90;;;26.60;76.70;;;;;;6753797;88;20212;-80
2023/06/27 12:04:56;;;;;;;1999.90;999.90;;;26.80;76.70;;;;;;6746744;88;20192;-79
2023/06/27 12:15:14;;;;;;;1999.90;999.90;;;25.90;77.90;;;;;;6733438;88;20939;-79
2023/06/27 12:25:15;;;;;;;1999.90;999.90;;;27.00;76.40;;;;;;6743876;88;20676;-79
2023/06/27 12:35:17;;;;;;;1999.90;999.90;;;28.20;71.70;;;;;;6742440;88;20220;-80
2023/06/27 12:45:19;;;;;;;1999.90;999.90;;;28.90;73.00;;;;;;6735591;88;20174;-80
2023/06/27 12:55:20;;;;;;;1999.90;999.90;;;28.60;71.30;;;;;;6742964;88;20214;-79
2023/06/27 13:05:21;;;;;;;1999.90;999.90;;;28.50;69.30;;;;;;6739087;88;20267;-79
2023/06/27 13:15:21;;;;;;;1999.90;999.90;;;28.80;71.20;;;;;;6741626;88;20286;-78
2023/06/27 13:25:22;;;;;;;1999.90;999.90;;;28.70;68.30;;;;;;6735242;88;20197;-79
2023/06/27 13:35:23;;;;;;;1999.90;999.90;;;28.30;70.80;;;;;;6741595;88;20197;-81
2023/06/27 13:45:23;;;;;;;1999.90;999.90;;;28.60;69.90;;;;;;6740803;88;20193;-79
2023/06/27 13:55:24;;;;;;;1999.90;999.90;;;27.80;72.20;;;;;;6737617;88;20288;-78
2023/06/27 14:05:26;;;;;;;1999.90;999.90;;;27.90;72.50;;;;;;6730128;88;20713;-78
2023/06/27 14:15:27;;;;;;;1999.90;999.90;;;27.30;72.50;;;;;;6734168;88;20610;-79
2023/06/27 14:25:28;;;;;;;1999.90;999.90;;;27.90;74.40;;;;;;6736751;88;20184;-79
2023/06/27 14:35:28;;;;;;;1999.90;999.90;;;27.50;72.70;;;;;;6753088;88;20668;-80
2023/06/27 14:45:29;;;;;;;1999.90;999.90;;;27.10;73.40;;;;;;6755794;88;20184;-80
2023/06/27 14:55:29;;;;;;;1999.90;999.90;;;27.10;75.80;;;;;;6757552;88;20196;-79
2023/06/27 15:05:30;;;;;;;1999.90;999.90;;;26.90;73.50;;;;;;6753981;88;20161;-78
2023/06/27 15:15:31;;;;;;;1999.90;999.90;;;26.40;74.30;;;;;;6754919;88;20307;-79
2023/06/27 15:25:31;;;;;;;1999.90;999.90;;;27.10;73.70;;;;;;6757106;88;20217;-81
2023/06/27 15:35:32;;;;;;;1999.90;999.90;;;26.60;74.40;;;;;;6758435;88;20184;-80
2023/06/27 15:45:33;;;;;;;1999.90;999.90;;;26.40;72.20;;;;;;6758494;88;20251;-79
2023/06/27 15:55:34;;;;;;;1999.90;999.90;;;26.50;73.20;;;;;;6738871;88;20199;-79
2023/06/27 16:05:34;;;;;;;1999.90;999.90;;;25.90;73.90;;;;;;6738218;88;20229;-80
2023/06/27 16:15:35;;;;;;;1999.90;999.90;;;25.80;74.00;;;;;;6737708;88;20240;-79
2023/06/27 16:25:35;;;;;;;1999.90;999.90;;;25.40;73.30;;;;;;6739411;88;20235;-80
2023/06/27 16:35:36;;;;;;;1999.90;999.90;;;25.10;73.50;;;;;;6739953;88;20198;-80
2023/06/27 16:45:39;;;;;;;1999.90;999.90;;;25.20;75.00;;;;;;6737140;88;20204;-79
2023/06/27 17:05:43;;;;;;;;;;;25.10;73.80;;;;;;6670544;89;20385;-78
2023/06/27 17:15:43;;;;;;;1999.90;999.90;;;24.70;75.10;;;;;;6698403;88;20079;-78
2023/06/27 17:25:44;;;;;;;1999.90;999.90;;;24.50;75.30;;;;;;6665517;89;20344;-77
2023/06/27 17:35:44;;;;;;;1999.90;999.90;;;24.20;75.30;;;;;;6722555;88;20526;-77
2023/06/27 17:45:45;;;;;;;1999.90;999.90;;;24.10;77.10;;;;;;6716900;88;20200;-78
2023/06/27 17:55:46;;;;;;;1999.90;999.90;;;23.60;78.80;;;;;;6694945;87;20705;-79
2023/06/27 18:05:46;;;;;;;1999.90;999.90;;;23.50;79.80;;;;;;6671832;88;20218;-79
2023/06/27 18:15:48;;;;;;;1999.90;999.90;;;23.30;80.30;;;;;;6672133;89;20698;-78
2023/06/27 18:25:49;;;;;;;1999.90;999.90;;;23.10;80.80;;;;;;6686343;88;20187;-79
2023/06/27 18:35:49;;;;;;;1999.90;999.90;;;22.90;82.00;;;;;;6688857;88;20205;-79
2023/06/27 18:45:50;;;;;;;1999.90;999.90;;;22.50;83.10;;;;;;6673336;89;20188;-80
2023/06/27 18:55:50;;;;;;;1999.90;999.90;;;22.30;82.70;;;;;;6686705;87;20198;-79
2023/06/27 19:05:51;;;;;;;1999.90;999.90;;;22.30;82.80;;;;;;6680351;88;20314;-78
2023/06/27 19:15:52;;;;;;;1999.90;999.90;;;22.30;83.20;;;;;;6680412;88;20262;-78
2023/06/27 19:25:52;;;;;;;1999.90;999.90;;;22.10;83.20;;;;;;6692740;88;20240;-79
2023/06/27 19:35:55;;;;;;;1999.90;999.90;;;21.90;83.80;;;;;;6678693;88;20229;-78
2023/06/27 19:45:56;;;;;;;1999.90;999.90;;;21.80;84.60;;;;;;6701563;88;20172;-79
2023/06/27 19:55:56;;;;;;;1999.90;999.90;;;21.70;85.60;;;;;;6691905;87;20193;-78
2023/06/27 20:05:57;;;;;;;1999.90;999.90;;;21.60;87.20;;;;;;6685664;88;20311;-78
2023/06/27 20:15:58;;;;;;;1999.90;999.90;;;21.40;90.50;;;;;;6677962;87;20296;-79
2023/06/27 20:25:59;;;;;;;1999.90;999.90;;;21.10;91.40;;;;;;6675784;88;20298;-76
2023/06/27 20:35:59;;;;;;;1999.90;999.90;;;20.80;92.60;;;;;;6675179;88;20229;-79
2023/06/27 20:46:03;;;;;;;1999.90;999.90;;;20.70;94.40;;;;;;6711080;88;20222;-79
2023/06/27 20:56:04;;;;;;;1999.90;999.90;;;20.60;95.70;;;;;;6679988;87;20361;-79
2023/06/27 21:06:04;;;;;;;1999.90;999.90;;;20.60;96.80;;;;;;6703659;88;20219;-79
2023/06/27 21:16:05;;;;;;;1999.90;999.90;;;20.50;97.80;;;;;;6689336;88;20187;-78
2023/06/27 21:26:05;;;;;;;1999.90;999.90;;;20.40;98.10;;;;;;6699939;88;20195;-79
2023/06/27 21:36:06;;;;;;;1999.90;999.90;;;20.40;99.90;;;;;;6690882;88;20309;-78
2023/06/27 21:46:06;;;;;;;1999.90;999.90;;;20.40;99.90;;;;;;6692229;88;20210;-78
2023/06/27 21:56:07;;;;;;;1999.90;999.90;;;20.40;99.90;;;;;;6726552;88;20227;-78
2023/06/27 22:06:07;;;;;;;1999.90;999.90;;;20.20;99.90;;;;;;6673440;88;20195;-78
2023/06/27 22:16:08;;;;;;;1999.90;999.90;;;20.10;99.90;;;;;;6726734;88;20228;-79
2023/06/27 22:26:09;;;;;;;1999.90;999.90;;;19.90;99.90;;;;;;6689589;88;20246;-78
2023/06/27 22:36:09;;;;;;;1999.90;999.90;;;19.30;99.90;;;;;;6727764;88;20210;-79
2023/06/27 22:46:10;;;;;;;1999.90;999.90;;;18.40;99.90;;;;;;6718428;88;20785;-78
2023/06/27 23:06:14;;;;;;;1999.90;999.90;;;17.60;99.90;;;;;;6745969;88;20219;-78
2023/06/27 23:16:14;;;;;;;1999.90;999.90;;;17.50;99.90;;;;;;6747630;88;20205;-80
2023/06/27 23:26:17;;;;;;;1999.90;999.90;;;17.20;99.90;;;;;;6759608;88;20506;-79
2023/06/27 23:36:19;;;;;;;1999.90;999.90;;;17.10;99.90;;;;;;6751942;88;20201;-79
2023/06/27 23:46:20;;;;;;;1999.90;999.90;;;17.00;99.90;;;;;;6741858;88;20185;-79
2023/06/27 23:56:20;;;;;;;1999.90;999.90;;;16.90;99.90;;;;;;6730942;88;20223;-79
